createdAt,value
2023-06-07T00:00:28.196Z,36.82
2023-06-07T00:02:58.688Z,36.68
2023-06-07T00:05:29.039Z,36.65
2023-06-07T00:07:59.262Z,36.47
2023-06-07T00:10:29.941Z,36.67
2023-06-07T00:13:02.669Z,36.62
2023-06-07T00:15:32.897Z,36.59
2023-06-07T00:18:03.631Z,36.74
2023-06-07T00:20:34.740Z,36.46
2023-06-07T00:23:06.644Z,36.91
2023-06-07T00:25:36.857Z,36.61
2023-06-07T00:28:09.784Z,36.67
2023-06-07T00:30:40.294Z,36.83
2023-06-07T00:33:10.440Z,36.58
2023-06-07T00:35:42.576Z,36.90
2023-06-07T00:38:12.931Z,36.63
2023-06-07T00:40:43.221Z,36.65
2023-06-07T00:43:18.917Z,36.83
2023-06-07T00:45:49.770Z,36.68
2023-06-07T00:48:20.056Z,36.80
2023-06-07T00:50:50.896Z,37.04
2023-06-07T00:53:21.280Z,36.84
2023-06-07T00:55:51.827Z,36.62
2023-06-07T00:58:24.993Z,36.94
2023-06-07T01:00:55.714Z,36.52
2023-06-07T01:03:26.349Z,36.72
2023-06-07T01:05:59.743Z,37.14
2023-06-07T01:08:29.962Z,36.74
2023-06-07T01:11:01.504Z,36.65
2023-06-07T01:13:35.081Z,36.50
2023-06-07T01:16:06.098Z,36.39
2023-06-07T01:18:37.302Z,36.32
2023-06-07T01:21:09.191Z,36.71
2023-06-07T01:23:43.029Z,36.19
2023-06-07T01:26:14.184Z,36.31
2023-06-07T01:28:46.400Z,36.10
2023-06-07T01:31:17.760Z,36.18
2023-06-07T01:33:48.428Z,36.34
2023-06-07T01:36:19.261Z,36.48
2023-06-07T01:38:52.551Z,36.51
2023-06-07T01:41:23.248Z,36.55
2023-06-07T01:43:53.936Z,36.43
2023-06-07T01:46:24.732Z,36.19
2023-06-07T01:48:57.640Z,36.19
2023-06-07T01:51:27.714Z,35.73
2023-06-07T01:54:00.606Z,36.12
2023-06-07T01:56:39.764Z,36.16
2023-06-07T01:59:18.719Z,36.01
2023-06-07T02:01:58.826Z,35.71
2023-06-07T02:04:36.232Z,35.97
2023-06-07T02:07:11.090Z,36.08
2023-06-07T02:09:45.746Z,36.04
2023-06-07T02:12:18.041Z,35.86
2023-06-07T02:14:53.989Z,36.16
2023-06-07T02:17:24.866Z,35.90
2023-06-07T02:19:55.123Z,35.81
2023-06-07T02:22:25.605Z,35.89
2023-06-07T02:25:00.353Z,36.03
2023-06-07T02:27:32.639Z,35.32
2023-06-07T02:30:03.309Z,35.82
2023-06-07T02:32:38.626Z,35.18
2023-06-07T02:35:11.450Z,35.71
2023-06-07T02:37:44.462Z,35.59
2023-06-07T02:40:18.030Z,35.82
2023-06-07T02:42:48.901Z,35.78
2023-06-07T02:45:19.796Z,35.88
2023-06-07T02:47:49.900Z,35.79
2023-06-07T02:50:20.243Z,35.75
2023-06-07T02:52:50.621Z,35.38
2023-06-07T02:55:24.261Z,35.52
2023-06-07T02:57:54.723Z,35.67
2023-06-07T03:00:29.418Z,35.32
2023-06-07T03:03:07.555Z,35.50
2023-06-07T03:05:42.465Z,35.91
2023-06-07T03:08:15.275Z,35.64
2023-06-07T03:10:49.304Z,35.43
2023-06-07T03:13:27.520Z,35.31
2023-06-07T03:15:57.842Z,35.36
2023-06-07T03:18:30.612Z,35.06
2023-06-07T03:21:04.976Z,34.76
2023-06-07T03:23:35.137Z,34.84
2023-06-07T03:26:08.635Z,35.16
2023-06-07T03:28:38.982Z,35.09
2023-06-07T03:31:10.753Z,35.29
2023-06-07T03:33:51.179Z,34.74
2023-06-07T03:36:22.209Z,34.32
2023-06-07T03:38:55.149Z,34.80
2023-06-07T03:41:28.281Z,34.88
2023-06-07T03:44:02.512Z,34.78
2023-06-07T03:46:33.573Z,34.75
2023-06-07T03:49:07.746Z,35.13
2023-06-07T03:51:40.408Z,35.10
2023-06-07T03:54:11.563Z,35.06
2023-06-07T03:56:44.297Z,35.19
2023-06-07T03:59:16.626Z,35.49
2023-06-07T04:01:47.367Z,35.56
2023-06-07T04:04:18.189Z,35.71
2023-06-07T04:06:50.127Z,35.55
2023-06-07T04:09:21.262Z,35.73
2023-06-07T04:11:54.148Z,35.77
2023-06-07T04:14:24.733Z,35.52
2023-06-07T04:16:55.256Z,35.79
2023-06-07T04:19:25.583Z,35.29
2023-06-07T04:21:57.903Z,35.40
2023-06-07T04:24:28.705Z,35.64
2023-06-07T04:27:02.475Z,35.68
2023-06-07T04:29:35.057Z,35.59
2023-06-07T04:32:06.745Z,35.69
2023-06-07T04:34:43.337Z,35.60
2023-06-07T04:37:17.607Z,35.82
2023-06-07T04:39:50.430Z,35.63
2023-06-07T04:42:24.504Z,35.70
2023-06-07T04:44:54.844Z,35.96
2023-06-07T04:47:28.895Z,35.45
2023-06-07T04:50:00.683Z,35.96
2023-06-07T04:52:33.443Z,36.53
2023-06-07T04:55:07.946Z,36.53
2023-06-07T04:57:40.743Z,36.40
2023-06-07T05:00:14.793Z,35.92
2023-06-07T05:02:48.482Z,35.63
2023-06-07T05:05:22.307Z,35.50
2023-06-07T05:07:54.459Z,35.75
2023-06-07T05:10:25.310Z,35.14
2023-06-07T05:12:58.334Z,35.34
2023-06-07T05:15:29.481Z,35.39
2023-06-07T05:18:00.003Z,36.14
2023-06-07T05:20:30.434Z,35.33
2023-06-07T05:23:03.808Z,35.74
2023-06-07T05:25:36.862Z,35.23
2023-06-07T05:28:13.511Z,34.65
2023-06-07T05:30:49.735Z,35.20
2023-06-07T05:33:22.282Z,35.12
2023-06-07T05:35:52.618Z,35.77
2023-06-07T05:38:23.331Z,35.96
2023-06-07T05:40:53.790Z,34.42
2023-06-07T05:43:26.539Z,34.92
2023-06-07T05:45:56.728Z,33.96
2023-06-07T05:48:27.039Z,32.55
2023-06-07T05:50:57.988Z,31.37
2023-06-07T05:53:29.312Z,30.49
2023-06-07T05:55:59.989Z,30.28
2023-06-07T05:58:32.858Z,30.45
2023-06-07T06:01:03.476Z,30.10
2023-06-07T06:03:33.631Z,30.76
2023-06-07T06:06:15.447Z,30.83
2023-06-07T06:08:46.249Z,29.41
2023-06-07T06:11:18.225Z,29.30
2023-06-07T06:13:51.560Z,29.71
2023-06-07T06:16:21.742Z,29.52
2023-06-07T06:18:54.867Z,29.15
2023-06-07T06:21:24.990Z,30.08
2023-06-07T06:23:55.185Z,29.76
2023-06-07T06:26:26.571Z,29.91
2023-06-07T06:28:59.416Z,29.38
2023-06-07T06:31:30.051Z,30.01
2023-06-07T06:34:00.486Z,29.82
2023-06-07T06:36:31.100Z,29.32
2023-06-07T06:39:01.553Z,29.23
2023-06-07T06:41:31.640Z,29.44
2023-06-07T06:44:05.516Z,29.26
2023-06-07T06:46:38.822Z,28.79
2023-06-07T06:49:13.202Z,28.06
2023-06-07T06:51:46.085Z,28.74
2023-06-07T06:54:16.539Z,28.31
2023-06-07T06:56:47.347Z,28.74
2023-06-07T06:59:20.419Z,27.94
2023-06-07T07:01:53.658Z,28.28
2023-06-07T07:04:23.986Z,29.15
2023-06-07T07:06:54.236Z,27.45
2023-06-07T07:09:24.332Z,27.75
2023-06-07T07:11:54.359Z,27.69
2023-06-07T07:14:27.045Z,27.42
2023-06-07T07:16:57.396Z,27.23
2023-06-07T07:19:27.484Z,28.40
2023-06-07T07:21:57.734Z,27.92
2023-06-07T07:24:27.973Z,27.87
2023-06-07T07:26:58.137Z,29.00
2023-06-07T07:29:30.823Z,27.93
2023-06-07T07:32:01.004Z,27.88
2023-06-07T07:34:31.689Z,28.40
2023-06-07T07:37:04.034Z,26.95
2023-06-07T07:39:35.246Z,27.53
2023-06-07T07:42:06.899Z,27.75
2023-06-07T07:44:39.733Z,27.50
2023-06-07T07:47:11.786Z,27.76
2023-06-07T07:49:42.289Z,27.71
2023-06-07T07:52:12.491Z,27.55
2023-06-07T07:54:42.689Z,27.13
2023-06-07T07:57:13.347Z,27.69
2023-06-07T07:59:46.028Z,27.17
2023-06-07T08:02:16.306Z,26.46
2023-06-07T08:04:46.717Z,27.36
2023-06-07T08:07:17.346Z,27.27
2023-06-07T08:09:48.065Z,25.78
2023-06-07T08:12:18.289Z,25.16
2023-06-07T08:14:51.342Z,23.89
2023-06-07T08:17:22.020Z,23.20
2023-06-07T08:19:52.732Z,21.22
2023-06-07T08:22:22.986Z,20.62
2023-06-07T08:24:53.268Z,20.85
2023-06-07T08:27:28.979Z,20.49
2023-06-07T08:30:03.367Z,20.14
2023-06-07T08:32:36.098Z,18.72
2023-06-07T08:35:06.870Z,18.23
2023-06-07T08:37:37.668Z,17.57
2023-06-07T08:40:09.937Z,17.80
2023-06-07T08:42:43.155Z,18.05
2023-06-07T08:45:17.934Z,18.13
2023-06-07T08:47:49.092Z,17.38
2023-06-07T08:50:23.158Z,17.81
2023-06-07T08:52:58.280Z,17.25
2023-06-07T08:55:28.863Z,17.38
2023-06-07T08:57:59.139Z,16.96
2023-06-07T09:00:32.839Z,17.81
2023-06-07T09:03:03.616Z,17.39
2023-06-07T09:05:33.874Z,17.40
2023-06-07T09:08:04.382Z,18.01
2023-06-07T09:10:34.739Z,18.80
2023-06-07T09:13:08.447Z,18.01
2023-06-07T09:15:43.009Z,17.88
2023-06-07T09:18:13.284Z,17.36
2023-06-07T09:20:43.396Z,16.29
2023-06-07T09:23:19.070Z,15.92
2023-06-07T09:25:57.788Z,15.39
2023-06-07T09:28:30.923Z,14.64
2023-06-07T09:31:05.742Z,14.66
2023-06-07T09:33:37.803Z,15.07
2023-06-07T09:36:09.802Z,15.07
2023-06-07T09:38:40.280Z,15.94
2023-06-07T09:41:11.160Z,17.26
2023-06-07T09:43:48.389Z,16.28
2023-06-07T09:46:22.309Z,16.79
2023-06-07T09:48:54.390Z,16.62
2023-06-07T09:51:28.906Z,16.33
2023-06-07T09:54:02.459Z,17.06
2023-06-07T09:56:47.419Z,17.38
2023-06-07T09:59:19.615Z,16.30
2023-06-07T10:01:54.083Z,15.24
2023-06-07T10:04:24.685Z,15.26
2023-06-07T10:06:59.356Z,13.73
2023-06-07T10:09:30.417Z,14.34
2023-06-07T10:12:01.657Z,14.11
2023-06-07T10:14:34.519Z,14.71
2023-06-07T10:17:10.472Z,14.53
2023-06-07T10:19:45.039Z,13.45
2023-06-07T10:22:18.202Z,12.81
2023-06-07T10:24:57.036Z,13.15
2023-06-07T10:27:30.862Z,12.92
2023-06-07T10:30:06.582Z,13.10
2023-06-07T10:32:40.932Z,13.83
2023-06-07T10:35:15.813Z,13.67
2023-06-07T10:37:46.889Z,14.13
2023-06-07T10:40:17.758Z,12.24
2023-06-07T10:42:49.516Z,12.39
2023-06-07T10:45:22.268Z,12.54
2023-06-07T10:47:55.003Z,13.03
2023-06-07T10:50:49.965Z,13.83
2023-06-07T10:53:20.098Z,14.02
2023-06-07T10:55:50.245Z,14.78
2023-06-07T10:58:31.188Z,15.58
2023-06-07T11:01:21.377Z,14.25
2023-06-07T11:03:54.464Z,12.95
2023-06-07T11:06:24.743Z,13.32
2023-06-07T11:09:14.845Z,12.52
2023-06-07T11:11:47.805Z,12.62
2023-06-07T11:14:18.226Z,12.89
2023-06-07T11:16:48.695Z,11.88
2023-06-07T11:19:22.184Z,12.23
2023-06-07T11:22:06.101Z,12.89
2023-06-07T11:24:39.078Z,12.48
2023-06-07T11:27:16.157Z,12.20
2023-06-07T11:29:46.734Z,12.16
2023-06-07T11:32:17.311Z,10.89
2023-06-07T11:35:03.781Z,11.32
2023-06-07T11:37:34.142Z,11.23
2023-06-07T11:40:05.988Z,10.65
2023-06-07T11:42:37.504Z,11.23
2023-06-07T11:45:08.759Z,11.06
2023-06-07T11:47:39.031Z,11.76
2023-06-07T11:50:13.103Z,11.37
2023-06-07T11:52:43.535Z,11.15
2023-06-07T11:55:13.734Z,11.09
2023-06-07T11:57:43.785Z,10.69
2023-06-07T12:00:17.044Z,10.27
2023-06-07T12:02:48.464Z,9.47
2023-06-07T12:05:27.913Z,9.73
2023-06-07T12:07:58.522Z,9.89
2023-06-07T12:10:30.938Z,9.17
2023-06-07T12:13:12.373Z,9.05
2023-06-07T12:15:46.383Z,9.45
2023-06-07T12:18:17.640Z,8.75
2023-06-07T12:20:51.907Z,9.56
2023-06-07T12:23:25.395Z,8.79
2023-06-07T12:26:09.193Z,9.01
2023-06-07T12:28:40.953Z,8.63
2023-06-07T12:31:19.104Z,8.71
2023-06-07T12:33:59.531Z,8.44
2023-06-07T12:36:34.891Z,8.86
2023-06-07T12:39:08.526Z,8.41
2023-06-07T12:41:39.827Z,9.02
2023-06-07T12:44:16.157Z,8.41
2023-06-07T12:46:46.376Z,8.63
2023-06-07T12:49:16.910Z,9.11
2023-06-07T12:51:49.827Z,9.77
2023-06-07T12:54:20.246Z,9.32
2023-06-07T12:56:50.356Z,9.04
2023-06-07T12:59:20.748Z,8.88
2023-06-07T13:01:51.052Z,8.96
2023-06-07T13:04:21.267Z,8.99
2023-06-07T13:06:54.048Z,10.61
2023-06-07T13:09:25.679Z,11.54
2023-06-07T13:11:55.905Z,12.87
2023-06-07T13:14:26.698Z,14.52
2023-06-07T13:16:56.923Z,14.86
2023-06-07T13:19:27.191Z,15.25
2023-06-07T13:21:59.908Z,15.86
2023-06-07T13:24:30.111Z,16.52
2023-06-07T13:27:00.723Z,16.62
2023-06-07T13:29:31.037Z,16.57
2023-06-07T13:32:01.287Z,17.03
2023-06-07T13:34:31.591Z,16.81
2023-06-07T13:37:05.001Z,17.08
2023-06-07T13:39:35.790Z,17.29
2023-06-07T13:42:06.868Z,16.68
2023-06-07T13:44:45.116Z,17.26
2023-06-07T13:47:15.342Z,17.26
2023-06-07T13:49:45.933Z,17.13
2023-06-07T13:52:19.064Z,17.87
2023-06-07T13:54:50.520Z,17.19
2023-06-07T13:57:21.356Z,17.17
2023-06-07T13:59:51.500Z,17.23
2023-06-07T14:02:22.143Z,17.73
2023-06-07T14:04:52.652Z,17.59
2023-06-07T14:07:25.412Z,17.81
2023-06-07T14:09:55.541Z,17.67
2023-06-07T14:12:26.013Z,17.73
2023-06-07T14:14:56.076Z,18.66
2023-06-07T14:17:26.291Z,18.41
2023-06-07T14:19:56.367Z,18.52
2023-06-07T14:22:29.140Z,18.30
2023-06-07T14:24:59.320Z,18.80
2023-06-07T14:27:29.424Z,18.82
2023-06-07T14:29:59.520Z,18.67
2023-06-07T14:32:31.125Z,19.04
2023-06-07T14:35:01.225Z,18.18
2023-06-07T14:37:34.009Z,18.12
2023-06-07T14:40:04.451Z,18.75
2023-06-07T14:42:34.680Z,17.96
2023-06-07T14:45:05.126Z,17.17
2023-06-07T14:47:35.552Z,18.56
2023-06-07T14:50:05.809Z,18.45
2023-06-07T14:52:38.758Z,17.74
2023-06-07T14:55:09.783Z,18.42
2023-06-07T14:57:40.939Z,18.09
2023-06-07T15:00:13.121Z,18.18
2023-06-07T15:02:43.571Z,18.00
2023-06-07T15:05:14.290Z,18.01
2023-06-07T15:07:47.054Z,19.42
2023-06-07T15:10:21.216Z,19.81
2023-06-07T15:12:52.706Z,19.21
2023-06-07T15:15:30.033Z,18.91
2023-06-07T15:18:03.443Z,18.76
2023-06-07T15:20:34.015Z,19.25
2023-06-07T15:23:07.221Z,18.29
2023-06-07T15:25:38.861Z,19.17
2023-06-07T15:28:10.246Z,19.05
2023-06-07T15:30:40.347Z,18.34
2023-06-07T15:33:14.153Z,18.39
2023-06-07T15:35:44.400Z,18.86
2023-06-07T15:38:25.606Z,19.47
2023-06-07T15:40:55.971Z,19.64
2023-06-07T15:43:26.197Z,19.10
2023-06-07T15:45:56.332Z,19.70
2023-06-07T15:48:26.854Z,20.28
2023-06-07T15:50:57.251Z,19.80
2023-06-07T15:53:32.650Z,20.02
2023-06-07T15:56:06.048Z,20.04
2023-06-07T15:58:37.750Z,19.85
2023-06-07T16:01:08.265Z,20.75
2023-06-07T16:03:54.288Z,20.70
2023-06-07T16:06:26.293Z,20.68
2023-06-07T16:09:02.092Z,21.00
2023-06-07T16:11:32.313Z,20.91
2023-06-07T16:14:03.014Z,21.03
2023-06-07T16:16:33.170Z,21.13
2023-06-07T16:19:03.897Z,21.34
2023-06-07T16:21:34.489Z,21.13
2023-06-07T16:24:11.287Z,20.97
2023-06-07T16:26:41.515Z,20.92
2023-06-07T16:29:11.621Z,20.94
2023-06-07T16:31:41.777Z,21.16
2023-06-07T16:34:12.111Z,21.53
2023-06-07T16:36:42.271Z,21.20
2023-06-07T16:39:15.080Z,21.56
2023-06-07T16:41:45.420Z,21.10
2023-06-07T16:44:16.060Z,21.65
2023-06-07T16:46:47.152Z,21.60
2023-06-07T16:49:17.562Z,21.12
2023-06-07T16:51:47.972Z,21.72
2023-06-07T16:54:20.735Z,21.36
2023-06-07T16:56:50.893Z,21.84
2023-06-07T16:59:20.998Z,21.67
2023-06-07T17:01:51.328Z,21.83
2023-06-07T17:04:22.113Z,21.88
2023-06-07T17:06:52.865Z,22.38
2023-06-07T17:09:27.247Z,23.22
2023-06-07T17:11:57.645Z,22.88
2023-06-07T17:14:27.813Z,22.60
2023-06-07T17:16:57.986Z,22.20
2023-06-07T17:19:28.157Z,22.75
2023-06-07T17:21:58.288Z,22.50
2023-06-07T17:24:31.664Z,22.68
2023-06-07T17:27:02.151Z,22.75
2023-06-07T17:29:32.435Z,23.31
2023-06-07T17:32:02.878Z,23.88
2023-06-07T17:34:33.396Z,23.23
2023-06-07T17:37:06.680Z,23.42
2023-06-07T17:39:39.774Z,23.56
2023-06-07T17:42:10.303Z,24.24
2023-06-07T17:44:43.704Z,23.81
2023-06-07T17:47:16.900Z,24.67
2023-06-07T17:49:47.410Z,24.72
2023-06-07T17:52:22.876Z,24.28
2023-06-07T17:54:56.638Z,24.35
2023-06-07T17:57:26.980Z,24.04
2023-06-07T18:00:00.448Z,24.42
2023-06-07T18:02:30.854Z,23.86
2023-06-07T18:05:01.203Z,24.75
2023-06-07T18:07:31.801Z,24.47
2023-06-07T18:10:05.464Z,24.78
2023-06-07T18:12:40.118Z,25.25
2023-06-07T18:15:13.864Z,24.81
2023-06-07T18:17:44.635Z,25.30
2023-06-07T18:20:30.396Z,25.29
2023-06-07T18:23:00.640Z,25.48
2023-06-07T18:25:33.576Z,25.30
2023-06-07T18:28:05.205Z,25.52
2023-06-07T18:33:38.605Z,25.78
2023-06-07T18:36:10.805Z,25.90
2023-06-07T18:38:41.056Z,25.78
2023-06-07T18:41:14.084Z,25.66
2023-06-07T18:43:44.294Z,26.03
2023-06-07T18:46:15.391Z,25.96
2023-06-07T18:48:47.699Z,26.06
2023-06-07T18:51:17.874Z,26.55
2023-06-07T18:53:50.851Z,25.87
2023-06-07T18:56:26.091Z,26.40
2023-06-07T18:58:58.682Z,26.45
2023-06-07T19:01:42.361Z,25.97
2023-06-07T19:04:12.968Z,25.60
2023-06-07T19:06:43.201Z,25.96
2023-06-07T19:09:13.566Z,25.82
2023-06-07T19:11:46.455Z,25.61
2023-06-07T19:14:17.602Z,25.82
2023-06-07T19:16:50.332Z,25.24
2023-06-07T19:19:20.500Z,25.62
2023-06-07T19:21:50.755Z,25.16
2023-06-07T19:24:38.650Z,25.43
2023-06-07T19:27:24.815Z,25.53
2023-06-07T19:29:55.039Z,25.99
2023-06-07T19:32:27.600Z,26.67
2023-06-07T19:34:58.048Z,26.32
2023-06-07T19:37:28.985Z,25.46
2023-06-07T19:39:59.421Z,27.50
2023-06-07T19:42:33.052Z,26.28
2023-06-07T19:45:03.469Z,26.48
2023-06-07T19:47:35.210Z,25.98
2023-06-07T19:50:10.746Z,27.28
2023-06-07T19:53:11.793Z,26.86
2023-06-07T19:55:47.169Z,27.33
2023-06-07T19:58:36.690Z,27.53
2023-06-07T20:01:07.329Z,26.71
2023-06-07T20:03:37.625Z,27.33
2023-06-07T20:06:09.246Z,27.48
2023-06-07T20:08:42.814Z,26.67
2023-06-07T20:11:19.170Z,27.02
2023-06-07T20:13:54.757Z,26.97
2023-06-07T20:16:25.651Z,26.68
2023-06-07T20:19:10.084Z,27.27
2023-06-07T20:21:41.249Z,26.83
2023-06-07T20:24:22.535Z,26.31
2023-06-07T20:26:53.005Z,26.64
2023-06-07T20:29:26.993Z,26.70
2023-06-07T20:31:59.972Z,27.08
2023-06-07T20:34:30.927Z,26.45
2023-06-07T20:37:14.157Z,27.18
2023-06-07T20:39:55.181Z,26.58
2023-06-07T20:42:30.229Z,27.09
2023-06-07T20:45:13.818Z,27.17
2023-06-07T20:47:48.757Z,26.93
2023-06-07T20:50:54.590Z,27.32
2023-06-07T20:53:28.165Z,26.98
2023-06-07T20:55:58.549Z,26.78
2023-06-07T20:58:39.515Z,27.38
2023-06-07T21:01:14.910Z,26.80
2023-06-07T21:03:51.995Z,26.98
2023-06-07T21:06:23.423Z,27.94
2023-06-07T21:08:53.786Z,27.47
2023-06-07T21:11:30.137Z,27.42
2023-06-07T21:14:00.832Z,27.62
2023-06-07T21:16:36.727Z,27.77
2023-06-07T21:19:07.280Z,28.06
2023-06-07T21:21:40.527Z,27.96
2023-06-07T21:24:11.281Z,27.90
2023-06-07T21:26:49.007Z,27.85
2023-06-07T21:29:19.334Z,28.45
2023-06-07T21:31:54.332Z,27.89
2023-06-07T21:34:24.604Z,28.23
2023-06-07T21:36:54.829Z,27.95
2023-06-07T21:39:25.250Z,28.44
2023-06-07T21:41:56.912Z,28.30
2023-06-07T21:44:27.219Z,27.78
2023-06-07T21:47:00.401Z,27.96
2023-06-07T21:49:30.855Z,28.10
2023-06-07T21:52:01.221Z,28.28
2023-06-07T21:54:31.573Z,28.39
2023-06-07T21:57:04.841Z,28.67
2023-06-07T21:59:34.986Z,28.76
2023-06-07T22:02:09.317Z,28.60
2023-06-07T22:04:39.852Z,28.85
2023-06-07T22:07:10.977Z,28.97
2023-06-07T22:09:41.150Z,29.15
2023-06-07T22:12:15.983Z,29.27
2023-06-07T22:14:47.120Z,29.40
2023-06-07T22:17:20.800Z,29.28
2023-06-07T22:19:50.946Z,29.28
2023-06-07T22:22:21.127Z,29.88
2023-06-07T22:24:51.552Z,29.70
2023-06-07T22:27:21.748Z,29.74
2023-06-07T22:29:54.510Z,29.75
2023-06-07T22:32:30.488Z,29.52
2023-06-07T22:35:05.634Z,29.99
2023-06-07T22:37:36.801Z,30.04
2023-06-07T22:40:11.829Z,29.91
2023-06-07T22:42:42.131Z,30.16
2023-06-07T22:45:15.451Z,30.16
2023-06-07T22:47:49.962Z,30.27
2023-06-07T22:50:21.911Z,30.66
2023-06-07T22:52:53.930Z,30.65
2023-06-07T22:55:23.999Z,30.42
2023-06-07T22:57:54.121Z,30.65
2023-06-07T23:00:24.889Z,30.82
2023-06-07T23:02:58.650Z,30.90
2023-06-07T23:05:30.242Z,30.84
2023-06-07T23:08:00.945Z,30.89
2023-06-07T23:10:36.806Z,31.36
2023-06-07T23:13:10.692Z,31.20
2023-06-07T23:15:43.411Z,31.21
2023-06-07T23:18:19.033Z,31.01
2023-06-07T23:20:49.853Z,31.46
2023-06-07T23:23:21.011Z,31.14
2023-06-07T23:25:51.901Z,31.21
2023-06-07T23:28:22.089Z,31.40
2023-06-07T23:30:52.471Z,31.27
2023-06-07T23:33:26.160Z,31.87
2023-06-07T23:35:57.743Z,31.57
2023-06-07T23:38:27.981Z,31.90
2023-06-07T23:40:58.163Z,31.94
2023-06-07T23:43:28.501Z,32.47
2023-06-07T23:45:59.055Z,32.42
2023-06-07T23:48:31.783Z,32.88
2023-06-07T23:51:02.016Z,32.65
2023-06-07T23:53:32.132Z,33.16
2023-06-07T23:56:02.317Z,33.27
2023-06-07T23:58:32.907Z,33.21
